Time;durP1;ratioP1;P1;durP2;ratioP2;P2;SDS_P1;SDS_P2;PMS_P1;PMS_P2;Temp;Humidity;BMP_temperature;BMP_pressure;BME280_temperature;BME280_humidity;BME280_pressure;Samples;Min_cycle;Max_cycle;Signal;HPM_P1;HPM_P2
2023/05/06 00:00:21;;;;;;;35.00;15.38;;;14.40;99.90;;;;;;6136561;23;20092;-89
2023/05/06 00:02:47;;;;;;;24.98;14.55;;;14.40;99.90;;;;;;6136502;23;20012;-89
2023/05/06 00:05:17;;;;;;;30.50;14.88;;;14.40;99.90;;;;;;6136415;23;20009;-91
2023/05/06 00:07:47;;;;;;;27.95;15.05;;;14.40;99.90;;;;;;6136453;23;20097;-91
2023/05/06 00:10:14;;;;;;;27.58;15.70;;;14.30;99.90;;;;;;6160648;23;20017;-89
2023/05/06 00:12:41;;;;;;;22.48;15.20;;;14.30;99.90;;;;;;6136429;23;20048;-93
2023/05/06 00:15:08;;;;;;;22.88;14.40;;;14.20;99.90;;;;;;6186096;23;20092;-93
2023/05/06 00:17:37;;;;;;;24.95;15.00;;;14.10;99.90;;;;;;6159624;23;20005;-91
2023/05/06 00:20:04;;;;;;;23.38;14.77;;;14.10;99.90;;;;;;6187769;23;20017;-91
2023/05/06 00:22:31;;;;;;;30.63;14.50;;;14.10;99.90;;;;;;6160743;23;20068;-92
2023/05/06 00:24:57;;;;;;;22.02;13.90;;;14.10;99.90;;;;;;6136390;23;20009;-90
2023/05/06 00:27:24;;;;;;;24.13;14.30;;;14.10;99.90;;;;;;6136405;23;20016;-91
2023/05/06 00:29:51;;;;;;;27.55;14.23;;;14.10;99.90;;;;;;6136218;23;20012;-90
2023/05/06 00:32:17;;;;;;;23.95;14.55;;;14.10;99.90;;;;;;6137679;23;20001;-92
2023/05/06 00:34:43;;;;;;;22.33;14.40;;;14.00;99.90;;;;;;6136702;23;20439;-91
2023/05/06 00:37:13;;;;;;;24.98;14.55;;;14.00;99.90;;;;;;6136283;23;20019;-91
2023/05/06 00:39:39;;;;;;;22.33;14.77;;;13.90;99.90;;;;;;6136087;23;20453;-91
2023/05/06 00:42:06;;;;;;;25.05;15.00;;;13.90;99.90;;;;;;6160675;23;20013;-90
2023/05/06 00:44:33;;;;;;;21.90;14.45;;;13.80;99.90;;;;;;6160590;23;20040;-91
2023/05/06 00:47:00;;;;;;;33.65;16.02;;;13.80;99.90;;;;;;6136132;23;20032;-91
2023/05/06 00:49:30;;;;;;;30.33;16.35;;;13.70;99.90;;;;;;6160556;23;20067;-90
2023/05/06 00:52:00;;;;;;;26.27;15.63;;;13.60;99.90;;;;;;6160877;23;20016;-91
2023/05/06 00:54:28;;;;;;;24.88;15.43;;;13.70;99.90;;;;;;6160908;23;20443;-90
2023/05/06 00:56:55;;;;;;;26.80;16.50;;;13.60;99.90;;;;;;6161127;23;20028;-92
2023/05/06 00:59:22;;;;;;;25.10;15.20;;;13.60;99.90;;;;;;6137066;23;20450;-90
2023/05/06 01:01:51;;;;;;;20.17;14.50;;;13.60;99.90;;;;;;6168003;23;20013;-90
2023/05/06 01:04:17;;;;;;;26.13;15.13;;;13.60;99.90;;;;;;6143945;23;20001;-91
2023/05/06 01:07:13;;;;;;;27.38;15.43;;;13.50;99.90;;;;;;6143445;23;20463;-90
2023/05/06 01:09:54;;;;;;;27.30;15.52;;;13.50;99.90;;;;;;6160432;23;20339;-90
2023/05/06 01:12:33;;;;;;;35.63;17.15;;;13.40;99.90;;;;;;6185020;23;20099;-91
2023/05/06 01:15:19;;;;;;;27.23;14.77;;;13.40;99.90;;;;;;6160640;23;20051;-90
2023/05/06 01:17:50;;;;;;;25.13;15.52;;;13.30;99.90;;;;;;6158633;23;20443;-92
2023/05/06 01:20:20;;;;;;;25.52;15.20;;;13.30;99.90;;;;;;6160283;23;20385;-92
2023/05/06 01:22:48;;;;;;;24.90;15.70;;;13.30;99.90;;;;;;6136297;23;20032;-91
2023/05/06 01:25:20;;;;;;;29.17;15.35;;;13.20;99.90;;;;;;6162417;23;20005;-91
2023/05/06 01:27:49;;;;;;;23.83;14.90;;;13.20;99.90;;;;;;6162142;23;20013;-90
2023/05/06 01:30:19;;;;;;;28.52;15.55;;;13.20;99.90;;;;;;6162364;23;20001;-91
2023/05/06 01:33:32;;;;;;;23.67;14.50;;;13.20;99.90;;;;;;6162248;23;20032;-92
2023/05/06 01:36:14;;;;;;;23.73;15.05;;;13.20;99.90;;;;;;6162487;23;20016;-90
2023/05/06 01:39:05;;;;;;;22.75;15.05;;;13.20;99.90;;;;;;6162213;23;20051;-92
2023/05/06 01:41:34;;;;;;;22.08;14.00;;;13.10;99.90;;;;;;6162178;23;20013;-91
2023/05/06 01:44:05;;;;;;;20.58;13.82;;;13.10;99.90;;;;;;6162253;23;20339;-91
2023/05/06 01:46:37;;;;;;;21.45;14.10;;;13.10;99.90;;;;;;6162136;23;20016;-91
2023/05/06 01:49:10;;;;;;;21.65;14.13;;;13.10;99.90;;;;;;6137679;23;20017;-92
2023/05/06 01:51:37;;;;;;;21.55;14.35;;;13.10;99.90;;;;;;6162377;23;20033;-90
2023/05/06 01:54:04;;;;;;;21.58;13.73;;;13.00;99.90;;;;;;6186987;23;20009;-90
2023/05/06 01:56:30;;;;;;;23.02;13.77;;;13.10;99.90;;;;;;6162269;23;20016;-91
2023/05/06 01:58:58;;;;;;;20.90;14.20;;;13.10;99.90;;;;;;6138035;23;20068;-91
2023/05/06 02:01:25;;;;;;;21.17;14.95;;;13.10;99.90;;;;;;6137647;23;20082;-92
2023/05/06 02:03:51;;;;;;;16.60;13.65;;;13.10;99.90;;;;;;6137482;23;20347;-91
2023/05/06 02:06:17;;;;;;;21.13;14.10;;;13.10;99.90;;;;;;6137468;23;20005;-91
2023/05/06 02:08:44;;;;;;;19.77;14.23;;;13.20;99.90;;;;;;6132541;23;20025;-90
2023/05/06 02:11:15;;;;;;;18.88;13.40;;;13.20;99.90;;;;;;6138807;23;20005;-91
2023/05/06 02:13:42;;;;;;;18.67;13.52;;;13.20;99.90;;;;;;6137584;23;20016;-91
2023/05/06 02:16:10;;;;;;;17.40;13.20;;;13.30;99.90;;;;;;6162520;23;20065;-90
2023/05/06 02:18:37;;;;;;;19.45;14.20;;;13.40;99.90;;;;;;6162167;23;20009;-91
2023/05/06 02:21:04;;;;;;;15.57;13.95;;;13.40;99.90;;;;;;6137624;23;20005;-90
2023/05/06 02:23:30;;;;;;;18.80;15.15;;;13.50;99.90;;;;;;6161782;23;20024;-92
2023/05/06 02:25:58;;;;;;;18.95;15.18;;;13.50;99.90;;;;;;6162057;23;20140;-91
2023/05/06 02:28:24;;;;;;;17.05;15.02;;;13.50;99.90;;;;;;6162848;23;20009;-90
2023/05/06 02:30:56;;;;;;;17.45;15.60;;;13.40;99.90;;;;;;6161562;23;20058;-90
2023/05/06 02:33:23;;;;;;;17.98;16.05;;;13.30;99.90;;;;;;6162032;23;20009;-90
2023/05/06 02:35:50;;;;;;;18.40;15.68;;;13.20;99.90;;;;;;6161457;23;20013;-90
2023/05/06 02:38:17;;;;;;;18.98;15.23;;;13.20;99.90;;;;;;6161529;23;20032;-90
2023/05/06 02:40:44;;;;;;;20.15;15.80;;;13.20;99.90;;;;;;6161773;23;20087;-90
2023/05/06 02:43:10;;;;;;;16.98;15.18;;;13.20;99.90;;;;;;6161801;23;20374;-92
2023/05/06 02:45:37;;;;;;;18.92;15.32;;;13.20;99.90;;;;;;6161779;23;20446;-90
2023/05/06 02:48:03;;;;;;;21.15;15.20;;;13.20;99.90;;;;;;6161738;23;20017;-90
2023/05/06 02:50:30;;;;;;;19.00;15.63;;;13.20;99.90;;;;;;6161599;23;20008;-90
2023/05/06 02:52:57;;;;;;;17.02;15.10;;;13.20;99.90;;;;;;6161774;23;20063;-92
2023/05/06 02:55:24;;;;;;;18.25;15.50;;;13.30;99.90;;;;;;6186686;23;20001;-90
2023/05/06 02:57:50;;;;;;;18.17;15.65;;;13.30;99.90;;;;;;6161596;23;20016;-91
2023/05/06 03:00:20;;;;;;;20.88;15.30;;;13.30;99.90;;;;;;6161838;23;20085;-89
2023/05/06 03:02:46;;;;;;;17.42;15.50;;;13.20;99.90;;;;;;6161525;23;20021;-90
2023/05/06 03:05:13;;;;;;;20.35;16.20;;;13.20;99.90;;;;;;6161831;23;20194;-89
2023/05/06 03:07:40;;;;;;;18.63;15.98;;;13.20;99.90;;;;;;6161735;23;20009;-89
2023/05/06 03:10:07;;;;;;;25.23;15.82;;;13.10;99.90;;;;;;6161845;23;20099;-90
2023/05/06 03:12:36;;;;;;;18.05;15.30;;;13.10;99.90;;;;;;6161916;23;20016;-92
2023/05/06 03:15:02;;;;;;;21.65;15.80;;;13.10;99.90;;;;;;6138521;23;20490;-91
2023/05/06 03:17:29;;;;;;;17.23;15.00;;;13.00;99.90;;;;;;6167247;23;20071;-90
2023/05/06 03:19:56;;;;;;;24.50;16.30;;;13.00;99.90;;;;;;6173690;23;20012;-90
2023/05/06 03:22:23;;;;;;;20.08;15.80;;;13.00;99.90;;;;;;6173211;23;20362;-91
2023/05/06 03:24:49;;;;;;;17.55;14.95;;;13.00;99.90;;;;;;6137321;23;20001;-92
2023/05/06 03:27:16;;;;;;;19.88;15.52;;;13.00;99.90;;;;;;6161367;23;20040;-90
2023/05/06 03:29:47;;;;;;;19.85;15.18;;;13.00;99.90;;;;;;6137509;23;20063;-91
2023/05/06 03:32:15;;;;;;;17.27;15.45;;;13.00;99.90;;;;;;6161339;23;20005;-92
2023/05/06 03:34:44;;;;;;;18.75;15.25;;;13.00;99.90;;;;;;6137294;23;20013;-92
2023/05/06 03:37:15;;;;;;;21.63;15.57;;;13.00;99.90;;;;;;6138012;23;20089;-91
2023/05/06 03:39:47;;;;;;;22.13;16.05;;;12.90;99.90;;;;;;6140488;23;20005;-90
2023/05/06 03:42:15;;;;;;;18.00;15.55;;;12.90;99.90;;;;;;6160945;23;20454;-92
2023/05/06 03:44:43;;;;;;;18.05;16.17;;;13.00;99.90;;;;;;6137084;23;20084;-90
2023/05/06 03:47:09;;;;;;;17.88;15.98;;;12.90;99.90;;;;;;6136596;23;20012;-91
2023/05/06 03:49:36;;;;;;;20.00;16.25;;;12.90;99.90;;;;;;6136766;23;20005;-91
2023/05/06 03:52:04;;;;;;;18.38;16.13;;;12.90;99.90;;;;;;6136408;23;20013;-91
2023/05/06 03:54:31;;;;;;;16.38;14.68;;;12.90;99.90;;;;;;6161164;23;20043;-90
2023/05/06 03:56:58;;;;;;;21.52;16.50;;;12.90;99.90;;;;;;6136831;23;20442;-92
2023/05/06 03:59:25;;;;;;;17.73;15.57;;;12.90;99.90;;;;;;6136435;23;20449;-92
2023/05/06 04:01:52;;;;;;;17.23;15.35;;;12.90;99.90;;;;;;6136511;23;20035;-91
2023/05/06 04:04:18;;;;;;;17.45;15.57;;;12.90;99.90;;;;;;6136118;23;20071;-91
2023/05/06 04:06:44;;;;;;;18.33;16.40;;;13.00;99.90;;;;;;6136534;23;20032;-91
2023/05/06 04:09:11;;;;;;;18.42;16.48;;;13.00;99.90;;;;;;6136081;23;20396;-89
2023/05/06 04:11:39;;;;;;;17.67;15.88;;;13.10;99.90;;;;;;6161439;23;20005;-93
2023/05/06 04:14:12;;;;;;;25.13;16.63;;;13.10;99.90;;;;;;6161727;23;20009;-92
2023/05/06 04:16:39;;;;;;;18.45;16.58;;;13.20;99.90;;;;;;6161196;23;20009;-91
2023/05/06 04:19:07;;;;;;;18.90;16.90;;;13.20;99.90;;;;;;6160924;23;20064;-92
2023/05/06 04:21:35;;;;;;;23.15;17.50;;;13.30;99.90;;;;;;6161358;23;20013;-92
2023/05/06 04:24:07;;;;;;;19.77;17.77;;;13.40;99.90;;;;;;6162096;23;20009;-90
2023/05/06 04:26:37;;;;;;;18.83;17.02;;;13.40;99.90;;;;;;6161876;23;20009;-90
2023/05/06 04:29:04;;;;;;;20.85;18.00;;;13.50;99.90;;;;;;6161092;23;20012;-91
2023/05/06 04:31:35;;;;;;;19.00;16.90;;;13.70;99.90;;;;;;6163053;23;20040;-93
2023/05/06 04:36:53;;;;;;;20.10;18.10;;;13.90;99.90;;;;;;6252556;22;20024;-91
2023/05/06 04:39:45;;;;;;;20.02;18.20;;;14.00;99.90;;;;;;6216285;23;20016;-93
2023/05/06 04:42:15;;;;;;;22.48;19.63;;;14.20;99.90;;;;;;6191518;23;20009;-92
2023/05/06 04:44:52;;;;;;;22.92;20.52;;;14.40;99.90;;;;;;6183604;23;20095;-93
2023/05/06 04:47:24;;;;;;;23.00;20.63;;;14.60;99.90;;;;;;6160346;23;20005;-92
2023/05/06 04:49:52;;;;;;;26.70;22.13;;;14.90;99.90;;;;;;6184895;23;20133;-93
2023/05/06 04:52:20;;;;;;;23.38;21.10;;;15.40;99.90;;;;;;6159959;23;20028;-93
2023/05/06 04:54:48;;;;;;;23.38;21.10;;;16.10;99.90;;;;;;6160144;23;20020;-94
2023/05/06 04:57:15;;;;;;;23.02;20.92;;;16.90;99.90;;;;;;6159808;23;20528;-91
2023/05/06 04:59:45;;;;;;;22.98;21.17;;;17.80;99.90;;;;;;6159965;23;20009;-92
2023/05/06 05:02:11;;;;;;;21.85;19.90;;;18.60;99.90;;;;;;6159785;23;20036;-93
2023/05/06 05:04:40;;;;;;;22.83;20.83;;;19.80;99.90;;;;;;6185230;23;20013;-92
2023/05/06 05:07:10;;;;;;;23.73;21.70;;;20.30;99.90;;;;;;6160140;23;20006;-94
2023/05/06 05:09:43;;;;;;;23.55;21.52;;;21.20;99.90;;;;;;6163429;23;20036;-94
2023/05/06 05:12:10;;;;;;;23.95;21.85;;;21.80;99.90;;;;;;6246679;23;20015;-94
2023/05/06 05:14:41;;;;;;;24.58;22.75;;;22.10;99.90;;;;;;6221295;23;20000;-92
2023/05/06 05:17:09;;;;;;;25.77;23.30;;;22.80;99.90;;;;;;6245845;23;20066;-92
2023/05/06 05:19:41;;;;;;;24.65;22.85;;;22.90;99.90;;;;;;6221486;23;20361;-93
2023/05/06 05:22:10;;;;;;;24.90;22.90;;;23.10;99.90;;;;;;6221853;23;20015;-93
2023/05/06 05:24:36;;;;;;;26.20;23.70;;;23.20;99.90;;;;;;6235231;23;20016;-93
2023/05/06 05:27:06;;;;;;;25.77;23.50;;;23.00;99.90;;;;;;6261212;22;20015;-93
2023/05/06 05:29:36;;;;;;;25.70;23.45;;;23.20;99.90;;;;;;6234860;23;20020;-91
2023/05/06 05:32:09;;;;;;;25.40;23.40;;;23.00;99.90;;;;;;6223797;23;20015;-93
2023/05/06 05:34:36;;;;;;;24.92;23.02;;;23.60;99.90;;;;;;6245395;23;20091;-92
2023/05/06 05:37:02;;;;;;;26.70;24.35;;;23.90;99.90;;;;;;6195639;23;20259;-92
2023/05/06 05:39:30;;;;;;;25.75;23.55;;;24.00;99.90;;;;;;6195871;23;20009;-93
2023/05/06 05:41:59;;;;;;;25.55;23.48;;;24.10;99.90;;;;;;6220520;23;20075;-92
2023/05/06 05:44:26;;;;;;;26.20;24.38;;;24.40;99.90;;;;;;6195519;23;20074;-94
2023/05/06 05:46:56;;;;;;;26.90;24.92;;;24.60;99.90;;;;;;6245895;23;20011;-93
2023/05/06 05:49:22;;;;;;;27.25;25.13;;;25.10;99.90;;;;;;6220567;23;20012;-93
2023/05/06 05:51:53;;;;;;;27.52;25.38;;;25.80;99.90;;;;;;6195883;23;20004;-92
2023/05/06 05:54:22;;;;;;;28.08;25.60;;;25.60;99.90;;;;;;6195819;23;20012;-92
2023/05/06 05:56:49;;;;;;;27.17;25.08;;;25.10;99.90;;;;;;6196083;23;20046;-92
2023/05/06 05:59:16;;;;;;;27.58;25.58;;;25.50;99.90;;;;;;6213270;23;20027;-92
2023/05/06 06:01:46;;;;;;;28.02;25.70;;;25.60;99.90;;;;;;6197789;23;20000;-92
2023/05/06 06:04:14;;;;;;;26.80;24.60;;;25.10;99.90;;;;;;6220634;23;20081;-93
2023/05/06 06:06:41;;;;;;;26.20;24.00;;;24.50;99.90;;;;;;6220267;23;20057;-93
2023/05/06 06:09:09;;;;;;;25.65;23.75;;;23.90;99.90;;;;;;6198211;23;20012;-92
2023/05/06 06:11:38;;;;;;;25.67;23.65;;;23.90;99.90;;;;;;6198107;23;20005;-92
2023/05/06 06:14:06;;;;;;;25.67;23.67;;;23.60;99.90;;;;;;6197467;23;20346;-93
2023/05/06 06:16:33;;;;;;;26.02;23.77;;;23.30;99.90;;;;;;6222496;23;20004;-92
2023/05/06 06:18:59;;;;;;;25.77;23.45;;;23.20;99.90;;;;;;6197563;23;20004;-92
2023/05/06 06:21:27;;;;;;;26.48;24.00;;;23.40;99.90;;;;;;6189684;23;20001;-94
2023/05/06 06:23:54;;;;;;;26.60;24.48;;;23.70;99.90;;;;;;6246893;23;20020;-90
2023/05/06 06:26:21;;;;;;;27.13;25.13;;;23.80;99.90;;;;;;6222154;23;20060;-90
2023/05/06 06:28:50;;;;;;;26.02;23.95;;;23.60;99.90;;;;;;6247834;23;20121;-91
2023/05/06 06:31:17;;;;;;;26.42;24.13;;;23.40;99.90;;;;;;6222685;23;20430;-93
2023/05/06 06:33:44;;;;;;;28.60;25.80;;;23.10;99.90;;;;;;6196933;23;20008;-91
2023/05/06 06:36:10;;;;;;;27.27;25.00;;;23.60;99.90;;;;;;6247415;23;20489;-94
2023/05/06 06:38:40;;;;;;;27.60;25.10;;;23.20;99.90;;;;;;6222676;23;20095;-91
2023/05/06 06:41:13;;;;;;;28.48;25.98;;;23.10;99.90;;;;;;6253172;22;20034;-87
2023/05/06 06:43:43;;;;;;;28.73;26.13;;;23.40;99.90;;;;;;6247121;23;20016;-90
2023/05/06 06:46:16;;;;;;;29.52;26.83;;;23.30;99.90;;;;;;6221601;23;20008;-89
2023/05/06 08:47:20;;;;;;;29.27;27.27;;;24.90;99.90;;;;;;6266347;22;20879;-85
2023/05/06 08:49:48;;;;;;;29.50;27.23;;;24.80;99.90;;;;;;6228470;22;20026;-92
2023/05/06 08:52:14;;;;;;;28.90;26.52;;;24.90;99.90;;;;;;6226068;22;20360;-92
2023/05/06 08:54:41;;;;;;;28.73;26.55;;;25.10;99.90;;;;;;6225672;22;20011;-91
2023/05/06 08:57:12;;;;;;;28.90;26.92;;;24.80;99.90;;;;;;6225862;22;20483;-93
2023/05/06 08:59:40;;;;;;;30.52;28.10;;;24.60;99.90;;;;;;6227003;22;20015;-92
2023/05/06 09:02:07;;;;;;;29.83;27.77;;;24.50;99.90;;;;;;6226479;22;20023;-92
2023/05/06 09:04:34;;;;;;;29.20;27.02;;;24.60;99.90;;;;;;6225563;22;20008;-95
2023/05/06 09:07:01;;;;;;;29.77;27.45;;;24.60;99.90;;;;;;6226398;22;20046;-90
2023/05/06 09:13:33;;;;;;;29.08;27.13;;;24.20;99.90;;;;;;6280823;22;20088;-93
2023/05/06 09:16:21;;;;;;;30.00;27.73;;;24.10;99.90;;;;;;6236337;22;20090;-94
2023/05/06 09:18:47;;;;;;;29.60;27.33;;;24.00;99.90;;;;;;6215219;23;20016;-91
2023/05/06 09:21:13;;;;;;;28.98;27.00;;;24.00;99.90;;;;;;6241306;23;20048;-92
2023/05/06 09:23:40;;;;;;;29.67;27.60;;;24.00;99.90;;;;;;6240516;23;20028;-92
2023/05/06 09:26:08;;;;;;;28.60;26.60;;;24.00;99.90;;;;;;6240806;23;20055;-91
2023/05/06 09:28:35;;;;;;;29.17;27.05;;;24.10;99.90;;;;;;6240609;22;20012;-90
2023/05/06 09:31:01;;;;;;;29.50;27.52;;;24.00;99.90;;;;;;6240763;23;20541;-90
2023/05/06 09:33:28;;;;;;;29.48;27.27;;;23.90;99.90;;;;;;6241598;23;20044;-92
2023/05/06 09:36:00;;;;;;;28.88;26.73;;;24.00;99.90;;;;;;6246840;23;20027;-91
2023/05/06 09:38:30;;;;;;;29.08;26.75;;;24.00;99.90;;;;;;6217077;23;20008;-92
2023/05/06 09:50:04;;;;;;;;;;;;;;;;;;;;;
2023/05/06 10:20:26;;;;;;;30.42;28.42;;;24.20;99.90;;;;;;6283976;22;20027;-94
2023/05/06 10:43:55;;;;;;;31.60;29.25;;;24.30;99.90;;;;;;6276615;22;20035;-93
2023/05/06 10:58:07;;;;;;;;;;;;;;;;;;;;;
2023/05/06 11:01:51;;;;;;;;;;;;;;;;;;;;;
2023/05/06 15:02:00;;;;;;;30.02;28.02;;;23.60;99.90;;;;;;6279978;22;20303;-92
2023/05/06 15:04:27;;;;;;;29.83;28.05;;;23.70;99.90;;;;;;6212500;22;20020;-92
2023/05/06 15:06:55;;;;;;;30.02;28.13;;;23.70;99.90;;;;;;6216570;23;20004;-90
2023/05/06 15:09:21;;;;;;;30.20;28.08;;;23.70;99.90;;;;;;6191945;23;20083;-92
2023/05/06 15:11:48;;;;;;;30.08;28.27;;;23.70;99.90;;;;;;6191292;23;20009;-90
2023/05/06 15:14:14;;;;;;;29.83;28.00;;;23.80;99.90;;;;;;6191278;23;20004;-90
2023/05/06 15:16:41;;;;;;;30.58;28.67;;;23.80;99.90;;;;;;6191179;23;20005;-88
2023/05/06 15:19:07;;;;;;;30.48;28.48;;;23.60;99.90;;;;;;6166536;23;20442;-90
2023/05/06 15:21:33;;;;;;;30.77;28.75;;;23.50;99.90;;;;;;6191254;23;20334;-90
2023/05/06 15:24:00;;;;;;;30.50;28.60;;;23.60;99.90;;;;;;6191284;23;20019;-91
2023/05/06 15:26:26;;;;;;;30.70;28.65;;;23.50;99.90;;;;;;6191367;23;20059;-91
2023/05/06 15:28:53;;;;;;;30.67;28.65;;;23.50;99.90;;;;;;6191284;23;20477;-89
2023/05/06 15:31:19;;;;;;;30.70;28.67;;;23.40;99.90;;;;;;6191543;23;20000;-91
2023/05/06 15:33:45;;;;;;;30.88;28.98;;;23.30;99.90;;;;;;6192951;23;20042;-91
2023/05/06 15:36:12;;;;;;;30.38;28.40;;;23.30;99.90;;;;;;6193903;23;20000;-90
2023/05/06 15:38:57;;;;;;;30.85;28.80;;;23.30;99.90;;;;;;6193375;23;20032;-92
2023/05/06 15:41:32;;;;;;;30.00;28.30;;;23.20;99.90;;;;;;6194050;23;20425;-90
2023/05/06 15:44:00;;;;;;;30.02;28.13;;;23.20;99.90;;;;;;6190920;23;20016;-91
2023/05/06 15:46:28;;;;;;;29.88;28.08;;;23.20;99.90;;;;;;6191377;23;20028;-92
2023/05/06 15:49:02;;;;;;;30.27;28.27;;;23.20;99.90;;;;;;6195239;23;20031;-93
2023/05/06 15:51:29;;;;;;;30.50;28.23;;;23.20;99.90;;;;;;6193219;23;20012;-91
2023/05/06 15:54:15;;;;;;;30.13;28.02;;;23.20;99.90;;;;;;6191981;23;20012;-94
2023/05/06 16:02:20;;;;;;;29.60;27.63;;;23.10;99.90;;;;;;6263202;22;20026;-92
2023/05/06 16:05:12;;;;;;;29.08;27.27;;;23.20;99.90;;;;;;6196764;23;20411;-92
2023/05/06 16:07:38;;;;;;;28.85;27.00;;;23.00;99.90;;;;;;6190808;23;20062;-95
2023/05/06 16:10:05;;;;;;;28.98;26.98;;;23.00;99.90;;;;;;6191331;23;20020;-93
2023/05/06 16:12:32;;;;;;;29.33;27.52;;;23.00;99.90;;;;;;6166742;23;20015;-92
2023/05/06 16:15:00;;;;;;;29.27;27.33;;;22.90;99.90;;;;;;6167706;23;20464;-92
2023/05/06 16:17:26;;;;;;;29.10;27.30;;;22.90;99.90;;;;;;6166453;23;20007;-91
2023/05/06 16:19:52;;;;;;;29.58;27.70;;;22.80;99.90;;;;;;6190584;23;20012;-90
2023/05/06 16:22:18;;;;;;;29.60;27.45;;;22.70;99.90;;;;;;6190626;23;20039;-92
2023/05/06 16:24:45;;;;;;;29.95;27.73;;;22.60;99.90;;;;;;6166696;23;20013;-91
2023/05/06 16:27:11;;;;;;;28.80;26.85;;;22.60;99.90;;;;;;6191129;23;20136;-94
2023/05/06 16:29:37;;;;;;;28.48;26.58;;;22.30;99.90;;;;;;6192432;23;20009;-92
2023/05/06 16:32:04;;;;;;;28.75;26.92;;;22.20;99.90;;;;;;6165624;23;20016;-92
2023/05/06 16:34:30;;;;;;;28.63;26.92;;;22.20;99.90;;;;;;6165964;23;20504;-91
2023/05/06 16:36:59;;;;;;;28.63;26.73;;;22.10;99.90;;;;;;6166322;23;20005;-91
2023/05/06 16:39:27;;;;;;;28.80;27.00;;;22.10;99.90;;;;;;6191925;23;20114;-92
2023/05/06 16:41:53;;;;;;;29.02;27.10;;;22.20;99.90;;;;;;6166577;23;20422;-93
2023/05/06 16:44:20;;;;;;;29.48;27.38;;;22.10;99.90;;;;;;6190585;23;20074;-92
2023/05/06 16:46:46;;;;;;;29.02;27.20;;;22.00;99.90;;;;;;6190244;23;20008;-91
2023/05/06 16:49:13;;;;;;;29.48;27.55;;;21.80;99.90;;;;;;6191055;23;20087;-92
2023/05/06 16:51:39;;;;;;;28.45;26.75;;;21.70;99.90;;;;;;6165935;23;20005;-92
2023/05/06 16:54:05;;;;;;;28.35;26.65;;;21.60;99.90;;;;;;6190210;23;20509;-94
2023/05/06 16:56:31;;;;;;;28.95;26.98;;;21.60;99.90;;;;;;6191185;23;20009;-92
2023/05/06 16:58:58;;;;;;;28.77;27.08;;;21.50;99.90;;;;;;6190429;23;20051;-94
2023/05/06 17:01:24;;;;;;;28.38;26.52;;;21.40;99.90;;;;;;6190368;23;20016;-93
2023/05/06 17:03:51;;;;;;;28.52;26.83;;;21.40;99.90;;;;;;6193204;23;20095;-92
2023/05/06 17:06:17;;;;;;;29.20;27.27;;;21.30;99.90;;;;;;6191146;23;20036;-93
2023/05/06 17:08:44;;;;;;;28.08;26.48;;;21.30;99.90;;;;;;6215658;23;20008;-93
2023/05/06 17:11:10;;;;;;;28.88;27.08;;;21.10;99.90;;;;;;6184206;23;20032;-92
2023/05/06 17:13:37;;;;;;;29.13;27.25;;;21.00;99.90;;;;;;6216678;23;20012;-95
2023/05/06 17:16:03;;;;;;;28.67;26.88;;;21.00;99.90;;;;;;6215424;23;20012;-92
2023/05/06 17:18:29;;;;;;;28.40;26.60;;;20.90;99.90;;;;;;6215653;23;20009;-91
2023/05/06 17:20:56;;;;;;;28.65;26.70;;;20.90;99.90;;;;;;6215573;23;20004;-93
2023/05/06 17:23:23;;;;;;;28.77;26.85;;;20.80;99.90;;;;;;6215865;23;20024;-94
2023/05/06 17:25:50;;;;;;;28.27;26.42;;;20.80;99.90;;;;;;6215927;23;20009;-94
2023/05/06 17:28:16;;;;;;;28.13;26.33;;;20.80;99.90;;;;;;6216116;23;20095;-93
2023/05/06 17:30:43;;;;;;;28.63;26.33;;;20.80;99.90;;;;;;6215749;23;20249;-93
2023/05/06 17:33:09;;;;;;;28.17;26.48;;;20.80;99.90;;;;;;6215977;23;20012;-93
2023/05/06 17:35:35;;;;;;;29.30;27.17;;;20.70;99.90;;;;;;6215564;23;20009;-94
2023/05/06 17:38:03;;;;;;;28.00;26.02;;;20.70;99.90;;;;;;6215287;23;20036;-92
2023/05/06 17:40:30;;;;;;;27.20;25.27;;;20.60;99.90;;;;;;6204346;22;20024;-94
2023/05/06 17:42:56;;;;;;;27.52;25.65;;;20.40;99.90;;;;;;6190747;23;20023;-92
2023/05/06 17:45:24;;;;;;;27.45;25.45;;;20.10;99.90;;;;;;6190548;23;20036;-94
2023/05/06 17:47:50;;;;;;;26.90;24.77;;;19.90;99.90;;;;;;6208574;23;20060;-94
2023/05/06 17:53:43;;;;;;;26.45;24.48;;;19.70;99.90;;;;;;6254101;22;20016;-93
2023/05/06 17:56:13;;;;;;;25.95;23.95;;;19.70;99.90;;;;;;6196650;23;20380;-95
2023/05/06 17:58:42;;;;;;;25.88;24.08;;;19.80;99.90;;;;;;6196309;23;20055;-94
2023/05/06 18:06:18;;;;;;;;;;;;;;;;;;;;;
2023/05/06 18:09:05;;;;;;;25.67;23.98;;;19.70;99.90;;;;;;6154646;22;20023;-94
2023/05/06 18:35:06;;;;;;;24.88;23.27;;;18.80;99.90;;;;;;6281606;22;20081;-93
2023/05/06 18:37:57;;;;;;;24.88;23.20;;;18.80;99.90;;;;;;6234138;22;20026;-94
2023/05/06 18:40:29;;;;;;;24.95;23.25;;;18.80;99.90;;;;;;6237210;22;20047;-94
2023/05/06 18:43:11;;;;;;;24.70;22.65;;;18.50;99.90;;;;;;6221945;23;20012;-93
2023/05/06 18:52:21;;;;;;;24.00;22.10;;;18.20;99.90;;;;;;6254148;22;20078;-92
2023/05/06 18:55:07;;;;;;;23.85;21.92;;;18.20;99.90;;;;;;6223551;23;20008;-92
2023/05/06 19:02:10;;;;;;;24.75;22.92;;;18.10;99.90;;;;;;5986344;23;20032;-93
2023/05/06 19:04:40;;;;;;;24.08;22.27;;;18.00;99.90;;;;;;6020751;23;20023;-93
2023/05/06 19:07:52;;;;;;;25.70;23.30;;;17.90;99.90;;;;;;6023326;23;20016;-94
2023/05/06 19:11:15;;;;;;;24.92;22.83;;;17.80;99.90;;;;;;6136391;22;20016;-93
2023/05/06 19:13:45;;;;;;;25.55;23.33;;;17.70;99.90;;;;;;6199968;23;20056;-91
2023/05/06 19:18:55;;;;;;;25.20;23.20;;;17.50;99.90;;;;;;6249292;22;20034;-93
2023/05/06 19:24:07;;;;;;;24.98;22.98;;;17.40;99.90;;;;;;6191330;23;20028;-93
2023/05/06 19:26:34;;;;;;;34.85;30.40;;;17.30;99.90;;;;;;6194358;23;20008;-93
2023/05/06 19:29:00;;;;;;;28.50;25.60;;;17.30;99.90;;;;;;6194438;23;20012;-91
2023/05/06 19:31:27;;;;;;;25.77;23.58;;;17.30;99.90;;;;;;6191309;23;20111;-92
2023/05/06 19:34:03;;;;;;;25.60;23.35;;;17.30;99.90;;;;;;6191277;23;20008;-94
2023/05/06 19:51:28;;;;;;;26.05;23.55;;;17.50;99.90;;;;;;6286877;22;20020;-93
2023/05/06 19:57:14;;;;;;;25.70;23.67;;;17.50;99.90;;;;;;6279534;22;20015;-93
2023/05/06 20:02:48;;;;;;;25.35;23.20;;;17.50;99.90;;;;;;6231811;22;20115;-93
2023/05/06 20:05:20;;;;;;;24.48;22.48;;;17.50;99.90;;;;;;6200446;23;20092;-93
2023/05/06 20:07:47;;;;;;;24.15;22.15;;;17.40;99.90;;;;;;6196363;23;20004;-93
2023/05/06 20:10:19;;;;;;;23.88;22.10;;;17.40;99.90;;;;;;6198201;23;20063;-93
2023/05/06 20:19:06;;;;;;;24.48;22.40;;;17.30;99.90;;;;;;6269194;22;21062;-93
2023/05/06 20:45:51;;;;;;;27.08;24.65;;;16.80;99.90;;;;;;6191080;23;20473;-95
2023/05/06 21:37:52;;;;;;;36.22;28.92;;;14.80;99.90;;;;;;6276241;22;20031;-93
2023/05/06 21:40:31;;;;;;;;;;;;;;;;;;;;;
2023/05/06 21:42:59;;;;;;;34.75;27.70;;;14.80;99.90;;;;;;6252405;22;20022;-93
2023/05/06 21:45:28;;;;;;;35.13;27.52;;;14.60;99.90;;;;;;6227652;22;20035;-94
2023/05/06 21:47:55;;;;;;;39.22;27.55;;;14.40;99.90;;;;;;6228274;22;20011;-93
2023/05/06 21:50:34;;;;;;;40.97;27.10;;;14.40;99.90;;;;;;6227647;22;20433;-93
2023/05/06 21:56:19;;;;;;;40.70;25.45;;;14.60;99.90;;;;;;6280196;22;20024;-93
2023/05/06 21:59:12;;;;;;;32.22;23.83;;;14.60;99.90;;;;;;6232254;22;20083;31
2023/05/06 22:01:39;;;;;;;31.30;23.63;;;14.70;99.90;;;;;;6220119;22;20020;-92
2023/05/06 22:04:19;;;;;;;28.20;23.40;;;14.70;99.90;;;;;;6234800;22;20031;-94
2023/05/06 22:06:46;;;;;;;32.20;24.38;;;14.60;99.90;;;;;;6225141;22;20042;-93
2023/05/06 22:09:18;;;;;;;26.13;23.42;;;14.50;99.90;;;;;;6199656;23;20437;-92
2023/05/06 22:14:53;;;;;;;27.13;24.20;;;14.60;99.90;;;;;;6252211;22;20030;-91
2023/05/06 22:17:20;;;;;;;27.08;23.45;;;14.70;99.90;;;;;;6233249;22;20099;-94
2023/05/06 22:19:46;;;;;;;35.58;26.27;;;14.70;99.90;;;;;;6232405;22;20031;-92
2023/05/06 22:22:13;;;;;;;32.83;28.58;;;14.70;99.90;;;;;;6226995;22;20008;-92
2023/05/06 22:24:39;;;;;;;38.58;28.70;;;14.70;99.90;;;;;;6227034;22;20367;-94
2023/05/06 22:27:06;;;;;;;32.40;26.58;;;14.70;99.90;;;;;;6226899;22;20027;-94
2023/05/06 22:29:33;;;;;;;31.25;25.30;;;14.70;99.90;;;;;;6227346;22;20007;-92
2023/05/06 22:32:01;;;;;;;33.47;24.77;;;14.70;99.90;;;;;;6228753;22;20004;-92
2023/05/06 22:34:27;;;;;;;32.38;24.35;;;14.70;99.90;;;;;;6227065;22;20094;-94
2023/05/06 22:36:53;;;;;;;33.50;25.33;;;14.60;99.90;;;;;;6228858;22;20083;-93
2023/05/06 22:39:22;;;;;;;28.75;25.08;;;14.40;99.90;;;;;;6226889;22;20004;-92